sensor_id;sensor_type;location;lat;lon;timestamp;temperature;humidity
68433;DHT22;55412;51.350;17.056;2023-06-14T00:02:10;12.30;61.90
68433;DHT22;55412;51.350;17.056;2023-06-14T00:04:36;12.20;61.40
68433;DHT22;55412;51.350;17.056;2023-06-14T00:07:03;12.20;61.90
68433;DHT22;55412;51.350;17.056;2023-06-14T00:09:29;12.10;61.50
68433;DHT22;55412;51.350;17.056;2023-06-14T00:11:55;12.00;62.20
68433;DHT22;55412;51.350;17.056;2023-06-14T00:14:21;11.90;62.40
68433;DHT22;55412;51.350;17.056;2023-06-14T00:16:47;11.80;62.30
68433;DHT22;55412;51.350;17.056;2023-06-14T00:19:13;11.70;62.30
68433;DHT22;55412;51.350;17.056;2023-06-14T00:21:39;11.60;63.20
68433;DHT22;55412;51.350;17.056;2023-06-14T00:24:06;11.30;63.50
68433;DHT22;55412;51.350;17.056;2023-06-14T00:26:33;11.20;64.40
68433;DHT22;55412;51.350;17.056;2023-06-14T00:28:59;11.30;65.60
68433;DHT22;55412;51.350;17.056;2023-06-14T00:31:25;11.30;65.20
68433;DHT22;55412;51.350;17.056;2023-06-14T00:33:51;11.30;65.10
68433;DHT22;55412;51.350;17.056;2023-06-14T00:36:17;11.30;65.30
68433;DHT22;55412;51.350;17.056;2023-06-14T00:38:43;11.60;66.30
68433;DHT22;55412;51.350;17.056;2023-06-14T00:41:09;11.50;64.10
68433;DHT22;55412;51.350;17.056;2023-06-14T00:43:36;11.60;65.60
68433;DHT22;55412;51.350;17.056;2023-06-14T00:46:02;11.70;63.80
68433;DHT22;55412;51.350;17.056;2023-06-14T00:48:28;11.90;64.20
68433;DHT22;55412;51.350;17.056;2023-06-14T00:50:55;12.00;64.20
68433;DHT22;55412;51.350;17.056;2023-06-14T00:53:22;12.00;62.10
68433;DHT22;55412;51.350;17.056;2023-06-14T00:55:48;11.90;63.80
68433;DHT22;55412;51.350;17.056;2023-06-14T00:58:15;11.90;63.80
68433;DHT22;55412;51.350;17.056;2023-06-14T01:00:42;12.00;63.90
68433;DHT22;55412;51.350;17.056;2023-06-14T01:03:08;12.00;62.50
68433;DHT22;55412;51.350;17.056;2023-06-14T01:05:38;11.70;62.10
68433;DHT22;55412;51.350;17.056;2023-06-14T01:11:32;11.70;64.20
68433;DHT22;55412;51.350;17.056;2023-06-14T01:14:03;11.60;63.80
68433;DHT22;55412;51.350;17.056;2023-06-14T01:16:31;11.60;64.30
68433;DHT22;55412;51.350;17.056;2023-06-14T01:18:58;11.50;64.40
68433;DHT22;55412;51.350;17.056;2023-06-14T01:21:25;11.30;63.60
68433;DHT22;55412;51.350;17.056;2023-06-14T01:23:54;11.30;64.90
68433;DHT22;55412;51.350;17.056;2023-06-14T01:26:21;11.40;64.60
68433;DHT22;55412;51.350;17.056;2023-06-14T01:28:49;11.20;64.00
68433;DHT22;55412;51.350;17.056;2023-06-14T01:31:20;11.20;65.20
68433;DHT22;55412;51.350;17.056;2023-06-14T01:33:50;11.10;64.20
68433;DHT22;55412;51.350;17.056;2023-06-14T01:36:20;11.20;64.90
68433;DHT22;55412;51.350;17.056;2023-06-14T01:38:47;11.30;65.10
68433;DHT22;55412;51.350;17.056;2023-06-14T01:41:17;11.50;65.00
68433;DHT22;55412;51.350;17.056;2023-06-14T01:43:45;11.70;63.60
68433;DHT22;55412;51.350;17.056;2023-06-14T01:46:13;11.70;63.00
68433;DHT22;55412;51.350;17.056;2023-06-14T01:48:40;11.60;62.80
68433;DHT22;55412;51.350;17.056;2023-06-14T01:51:07;11.50;63.40
68433;DHT22;55412;51.350;17.056;2023-06-14T01:53:33;11.50;64.90
68433;DHT22;55412;51.350;17.056;2023-06-14T01:55:59;11.80;64.60
68433;DHT22;55412;51.350;17.056;2023-06-14T01:58:25;11.80;64.30
68433;DHT22;55412;51.350;17.056;2023-06-14T02:00:51;11.60;64.70
68433;DHT22;55412;51.350;17.056;2023-06-14T02:03:21;11.50;64.50
68433;DHT22;55412;51.350;17.056;2023-06-14T02:05:47;11.30;64.60
68433;DHT22;55412;51.350;17.056;2023-06-14T02:08:13;11.10;65.60
68433;DHT22;55412;51.350;17.056;2023-06-14T02:10:39;11.00;64.50
68433;DHT22;55412;51.350;17.056;2023-06-14T02:13:05;11.00;66.00
68433;DHT22;55412;51.350;17.056;2023-06-14T02:15:31;10.80;65.40
68433;DHT22;55412;51.350;17.056;2023-06-14T02:18:03;10.70;66.30
68433;DHT22;55412;51.350;17.056;2023-06-14T02:20:29;10.60;65.60
68433;DHT22;55412;51.350;17.056;2023-06-14T02:22:56;10.60;65.80
68433;DHT22;55412;51.350;17.056;2023-06-14T02:25:22;10.50;66.10
68433;DHT22;55412;51.350;17.056;2023-06-14T02:27:49;10.70;66.80
68433;DHT22;55412;51.350;17.056;2023-06-14T02:30:15;10.80;66.40
68433;DHT22;55412;51.350;17.056;2023-06-14T02:32:41;10.90;65.90
68433;DHT22;55412;51.350;17.056;2023-06-14T02:35:08;11.00;66.10
68433;DHT22;55412;51.350;17.056;2023-06-14T02:37:35;11.20;65.90
68433;DHT22;55412;51.350;17.056;2023-06-14T02:40:01;11.50;64.60
68433;DHT22;55412;51.350;17.056;2023-06-14T02:42:27;11.40;65.40
68433;DHT22;55412;51.350;17.056;2023-06-14T02:44:53;11.60;65.40
68433;DHT22;55412;51.350;17.056;2023-06-14T02:47:19;11.60;64.30
68433;DHT22;55412;51.350;17.056;2023-06-14T02:49:45;11.40;64.90
68433;DHT22;55412;51.350;17.056;2023-06-14T02:52:15;11.20;65.40
68433;DHT22;55412;51.350;17.056;2023-06-14T02:54:41;11.00;66.30
68433;DHT22;55412;51.350;17.056;2023-06-14T02:57:07;10.90;66.30
68433;DHT22;55412;51.350;17.056;2023-06-14T02:59:34;10.70;66.30
68433;DHT22;55412;51.350;17.056;2023-06-14T03:02:00;10.50;66.90
68433;DHT22;55412;51.350;17.056;2023-06-14T03:04:26;10.30;68.40
68433;DHT22;55412;51.350;17.056;2023-06-14T03:06:54;10.30;68.60
68433;DHT22;55412;51.350;17.056;2023-06-14T03:09:20;10.20;68.30
68433;DHT22;55412;51.350;17.056;2023-06-14T03:11:47;10.10;69.20
68433;DHT22;55412;51.350;17.056;2023-06-14T03:14:13;10.10;69.80
68433;DHT22;55412;51.350;17.056;2023-06-14T03:16:39;10.30;70.50
68433;DHT22;55412;51.350;17.056;2023-06-14T03:19:06;10.60;68.90
68433;DHT22;55412;51.350;17.056;2023-06-14T03:21:33;10.70;68.70
68433;DHT22;55412;51.350;17.056;2023-06-14T03:24:00;11.00;67.90
68433;DHT22;55412;51.350;17.056;2023-06-14T03:26:28;11.10;67.50
68433;DHT22;55412;51.350;17.056;2023-06-14T03:28:56;11.30;67.30
68433;DHT22;55412;51.350;17.056;2023-06-14T03:31:22;11.40;67.10
68433;DHT22;55412;51.350;17.056;2023-06-14T03:33:49;11.50;66.90
68433;DHT22;55412;51.350;17.056;2023-06-14T03:36:15;11.40;66.90
68433;DHT22;55412;51.350;17.056;2023-06-14T03:38:41;11.40;67.30
68433;DHT22;55412;51.350;17.056;2023-06-14T03:41:07;11.40;67.60
68433;DHT22;55412;51.350;17.056;2023-06-14T03:43:33;11.50;67.40
68433;DHT22;55412;51.350;17.056;2023-06-14T03:46:00;11.60;67.30
68433;DHT22;55412;51.350;17.056;2023-06-14T03:48:26;11.60;66.40
68433;DHT22;55412;51.350;17.056;2023-06-14T03:50:52;11.60;66.60
68433;DHT22;55412;51.350;17.056;2023-06-14T03:53:20;11.60;67.00
68433;DHT22;55412;51.350;17.056;2023-06-14T03:55:49;11.70;66.70
68433;DHT22;55412;51.350;17.056;2023-06-14T03:58:18;11.80;66.70
68433;DHT22;55412;51.350;17.056;2023-06-14T04:00:44;11.70;67.10
68433;DHT22;55412;51.350;17.056;2023-06-14T04:03:11;11.80;69.90
68433;DHT22;55412;51.350;17.056;2023-06-14T04:05:39;11.80;70.70
68433;DHT22;55412;51.350;17.056;2023-06-14T04:08:08;11.70;70.10
68433;DHT22;55412;51.350;17.056;2023-06-14T04:10:35;11.60;68.20
68433;DHT22;55412;51.350;17.056;2023-06-14T04:13:01;11.70;69.10
68433;DHT22;55412;51.350;17.056;2023-06-14T04:15:27;11.80;70.20
68433;DHT22;55412;51.350;17.056;2023-06-14T04:17:54;11.90;68.90
68433;DHT22;55412;51.350;17.056;2023-06-14T04:20:23;12.10;69.30
68433;DHT22;55412;51.350;17.056;2023-06-14T04:22:51;12.20;68.20
68433;DHT22;55412;51.350;17.056;2023-06-14T04:25:18;12.30;69.20
68433;DHT22;55412;51.350;17.056;2023-06-14T04:27:44;12.40;70.10
68433;DHT22;55412;51.350;17.056;2023-06-14T04:30:10;12.50;72.20
68433;DHT22;55412;51.350;17.056;2023-06-14T04:32:36;12.60;72.20
68433;DHT22;55412;51.350;17.056;2023-06-14T04:35:07;12.60;73.10
68433;DHT22;55412;51.350;17.056;2023-06-14T04:37:33;12.70;71.80
68433;DHT22;55412;51.350;17.056;2023-06-14T04:40:00;12.80;72.10
68433;DHT22;55412;51.350;17.056;2023-06-14T04:42:26;12.80;71.90
68433;DHT22;55412;51.350;17.056;2023-06-14T04:44:56;12.80;72.20
68433;DHT22;55412;51.350;17.056;2023-06-14T04:47:23;12.80;72.30
68433;DHT22;55412;51.350;17.056;2023-06-14T04:49:59;12.80;70.90
68433;DHT22;55412;51.350;17.056;2023-06-14T04:52:26;12.80;71.40
68433;DHT22;55412;51.350;17.056;2023-06-14T04:54:52;12.80;71.70
68433;DHT22;55412;51.350;17.056;2023-06-14T04:57:20;12.80;71.80
68433;DHT22;55412;51.350;17.056;2023-06-14T04:59:48;12.80;71.20
68433;DHT22;55412;51.350;17.056;2023-06-14T05:02:14;12.90;71.70
68433;DHT22;55412;51.350;17.056;2023-06-14T05:04:40;12.90;70.60
68433;DHT22;55412;51.350;17.056;2023-06-14T05:07:09;12.90;71.90
68433;DHT22;55412;51.350;17.056;2023-06-14T05:09:36;13.00;71.80
68433;DHT22;55412;51.350;17.056;2023-06-14T05:12:03;13.00;71.30
68433;DHT22;55412;51.350;17.056;2023-06-14T05:14:29;12.90;72.20
68433;DHT22;55412;51.350;17.056;2023-06-14T05:16:56;12.90;72.40
68433;DHT22;55412;51.350;17.056;2023-06-14T05:19:22;13.00;72.30
68433;DHT22;55412;51.350;17.056;2023-06-14T05:21:48;13.00;72.10
68433;DHT22;55412;51.350;17.056;2023-06-14T05:24:15;13.00;73.10
68433;DHT22;55412;51.350;17.056;2023-06-14T05:26:42;13.10;72.20
68433;DHT22;55412;51.350;17.056;2023-06-14T05:29:08;13.10;71.20
68433;DHT22;55412;51.350;17.056;2023-06-14T05:31:34;13.20;72.10
68433;DHT22;55412;51.350;17.056;2023-06-14T05:34:00;13.20;73.50
68433;DHT22;55412;51.350;17.056;2023-06-14T05:36:27;13.30;72.90
68433;DHT22;55412;51.350;17.056;2023-06-14T05:38:53;13.40;74.10
68433;DHT22;55412;51.350;17.056;2023-06-14T05:41:26;13.60;74.70
68433;DHT22;55412;51.350;17.056;2023-06-14T05:43:54;13.70;74.20
68433;DHT22;55412;51.350;17.056;2023-06-14T05:46:21;14.00;74.60
68433;DHT22;55412;51.350;17.056;2023-06-14T05:48:52;14.10;71.90
68433;DHT22;55412;51.350;17.056;2023-06-14T05:51:19;14.30;74.50
68433;DHT22;55412;51.350;17.056;2023-06-14T05:53:46;14.40;73.90
68433;DHT22;55412;51.350;17.056;2023-06-14T05:56:16;14.60;74.20
68433;DHT22;55412;51.350;17.056;2023-06-14T05:58:44;14.80;74.20
68433;DHT22;55412;51.350;17.056;2023-06-14T06:01:10;14.90;73.60
68433;DHT22;55412;51.350;17.056;2023-06-14T06:03:37;15.00;72.80
68433;DHT22;55412;51.350;17.056;2023-06-14T06:06:03;15.00;72.90
68433;DHT22;55412;51.350;17.056;2023-06-14T06:08:29;15.10;72.50
68433;DHT22;55412;51.350;17.056;2023-06-14T06:10:57;15.10;72.20
68433;DHT22;55412;51.350;17.056;2023-06-14T06:13:23;15.10;72.70
68433;DHT22;55412;51.350;17.056;2023-06-14T06:15:49;15.10;72.80
68433;DHT22;55412;51.350;17.056;2023-06-14T06:18:15;15.10;72.60
68433;DHT22;55412;51.350;17.056;2023-06-14T06:20:41;15.10;72.40
68433;DHT22;55412;51.350;17.056;2023-06-14T06:23:07;15.10;72.20
68433;DHT22;55412;51.350;17.056;2023-06-14T06:25:35;15.10;71.90
68433;DHT22;55412;51.350;17.056;2023-06-14T06:28:01;15.10;72.10
68433;DHT22;55412;51.350;17.056;2023-06-14T06:30:27;15.20;72.60
68433;DHT22;55412;51.350;17.056;2023-06-14T06:32:53;15.30;72.40
68433;DHT22;55412;51.350;17.056;2023-06-14T06:35:21;15.40;71.70
68433;DHT22;55412;51.350;17.056;2023-06-14T06:37:47;15.60;72.00
68433;DHT22;55412;51.350;17.056;2023-06-14T06:40:13;15.90;71.50
68433;DHT22;55412;51.350;17.056;2023-06-14T06:42:39;16.30;69.70
68433;DHT22;55412;51.350;17.056;2023-06-14T06:45:06;16.50;68.50
68433;DHT22;55412;51.350;17.056;2023-06-14T06:47:32;16.60;67.60
68433;DHT22;55412;51.350;17.056;2023-06-14T06:49:58;16.60;67.70
68433;DHT22;55412;51.350;17.056;2023-06-14T06:52:24;16.80;67.00
68433;DHT22;55412;51.350;17.056;2023-06-14T06:54:50;16.90;67.50
68433;DHT22;55412;51.350;17.056;2023-06-14T06:57:20;17.00;67.10
68433;DHT22;55412;51.350;17.056;2023-06-14T06:59:48;18.30;67.20
68433;DHT22;55412;51.350;17.056;2023-06-14T07:02:15;19.20;62.40
68433;DHT22;55412;51.350;17.056;2023-06-14T07:04:42;19.00;60.50
68433;DHT22;55412;51.350;17.056;2023-06-14T07:07:08;19.50;60.80
68433;DHT22;55412;51.350;17.056;2023-06-14T07:09:35;21.80;57.00
68433;DHT22;55412;51.350;17.056;2023-06-14T07:12:02;23.70;50.80
68433;DHT22;55412;51.350;17.056;2023-06-14T07:14:28;23.60;49.70
68433;DHT22;55412;51.350;17.056;2023-06-14T07:16:55;22.70;50.90
68433;DHT22;55412;51.350;17.056;2023-06-14T07:19:21;21.90;52.90
68433;DHT22;55412;51.350;17.056;2023-06-14T07:21:47;21.30;54.00
68433;DHT22;55412;51.350;17.056;2023-06-14T07:24:14;20.70;55.10
68433;DHT22;55412;51.350;17.056;2023-06-14T07:26:40;20.30;55.40
68433;DHT22;55412;51.350;17.056;2023-06-14T07:29:06;19.90;56.80
68433;DHT22;55412;51.350;17.056;2023-06-14T07:31:32;19.60;57.50
68433;DHT22;55412;51.350;17.056;2023-06-14T07:33:58;19.40;58.70
68433;DHT22;55412;51.350;17.056;2023-06-14T07:36:24;19.40;59.80
68433;DHT22;55412;51.350;17.056;2023-06-14T07:38:50;19.50;59.70
68433;DHT22;55412;51.350;17.056;2023-06-14T07:41:16;19.70;59.10
68433;DHT22;55412;51.350;17.056;2023-06-14T07:43:42;19.80;59.90
68433;DHT22;55412;51.350;17.056;2023-06-14T07:46:09;19.80;59.40
68433;DHT22;55412;51.350;17.056;2023-06-14T07:48:35;19.90;59.10
68433;DHT22;55412;51.350;17.056;2023-06-14T07:51:01;20.00;58.80
68433;DHT22;55412;51.350;17.056;2023-06-14T07:53:28;20.10;60.10
68433;DHT22;55412;51.350;17.056;2023-06-14T07:55:54;20.20;59.10
68433;DHT22;55412;51.350;17.056;2023-06-14T07:58:20;20.40;58.50
68433;DHT22;55412;51.350;17.056;2023-06-14T08:00:46;20.40;56.80
68433;DHT22;55412;51.350;17.056;2023-06-14T08:03:12;20.40;58.10
68433;DHT22;55412;51.350;17.056;2023-06-14T08:05:39;20.50;57.60
68433;DHT22;55412;51.350;17.056;2023-06-14T08:08:05;20.50;57.10
68433;DHT22;55412;51.350;17.056;2023-06-14T08:10:31;20.60;57.70
68433;DHT22;55412;51.350;17.056;2023-06-14T08:12:57;20.80;55.70
68433;DHT22;55412;51.350;17.056;2023-06-14T08:15:23;20.90;56.10
68433;DHT22;55412;51.350;17.056;2023-06-14T08:17:49;21.00;56.60
68433;DHT22;55412;51.350;17.056;2023-06-14T08:20:16;21.10;56.50
68433;DHT22;55412;51.350;17.056;2023-06-14T08:22:43;21.30;54.90
68433;DHT22;55412;51.350;17.056;2023-06-14T08:25:09;21.40;55.70
68433;DHT22;55412;51.350;17.056;2023-06-14T08:27:37;21.50;52.00
68433;DHT22;55412;51.350;17.056;2023-06-14T08:30:03;21.60;53.90
68433;DHT22;55412;51.350;17.056;2023-06-14T08:32:30;21.60;52.40
68433;DHT22;55412;51.350;17.056;2023-06-14T08:34:56;21.60;53.20
68433;DHT22;55412;51.350;17.056;2023-06-14T08:37:22;21.50;51.70
68433;DHT22;55412;51.350;17.056;2023-06-14T08:39:48;21.20;51.50
68433;DHT22;55412;51.350;17.056;2023-06-14T08:42:14;21.10;55.40
68433;DHT22;55412;51.350;17.056;2023-06-14T08:44:41;21.10;54.40
68433;DHT22;55412;51.350;17.056;2023-06-14T08:47:07;20.70;52.30
68433;DHT22;55412;51.350;17.056;2023-06-14T08:49:38;20.10;53.60
68433;DHT22;55412;51.350;17.056;2023-06-14T08:52:08;19.80;55.60
68433;DHT22;55412;51.350;17.056;2023-06-14T08:54:36;19.70;56.40
68433;DHT22;55412;51.350;17.056;2023-06-14T08:57:13;19.50;55.60
68433;DHT22;55412;51.350;17.056;2023-06-14T08:59:46;19.20;56.10
68433;DHT22;55412;51.350;17.056;2023-06-14T09:02:18;18.80;57.10
68433;DHT22;55412;51.350;17.056;2023-06-14T09:04:48;18.70;58.80
68433;DHT22;55412;51.350;17.056;2023-06-14T09:07:15;18.70;59.50
68433;DHT22;55412;51.350;17.056;2023-06-14T09:09:41;18.70;59.20
68433;DHT22;55412;51.350;17.056;2023-06-14T09:12:10;18.70;59.60
68433;DHT22;55412;51.350;17.056;2023-06-14T09:14:36;18.80;59.30
68433;DHT22;55412;51.350;17.056;2023-06-14T09:17:05;18.80;59.40
68433;DHT22;55412;51.350;17.056;2023-06-14T09:19:32;18.80;58.70
68433;DHT22;55412;51.350;17.056;2023-06-14T09:22:00;18.80;58.80
68433;DHT22;55412;51.350;17.056;2023-06-14T09:24:26;18.90;59.20
68433;DHT22;55412;51.350;17.056;2023-06-14T09:26:52;19.00;59.00
68433;DHT22;55412;51.350;17.056;2023-06-14T09:29:19;19.20;59.30
68433;DHT22;55412;51.350;17.056;2023-06-14T09:31:48;19.40;57.30
68433;DHT22;55412;51.350;17.056;2023-06-14T09:34:16;19.50;55.10
68433;DHT22;55412;51.350;17.056;2023-06-14T09:36:45;19.40;55.30
68433;DHT22;55412;51.350;17.056;2023-06-14T09:39:17;19.30;54.50
68433;DHT22;55412;51.350;17.056;2023-06-14T09:41:44;19.30;55.40
68433;DHT22;55412;51.350;17.056;2023-06-14T09:44:10;19.30;55.10
68433;DHT22;55412;51.350;17.056;2023-06-14T09:46:38;19.30;55.60
68433;DHT22;55412;51.350;17.056;2023-06-14T09:49:05;19.30;54.60
68433;DHT22;55412;51.350;17.056;2023-06-14T09:51:31;19.30;55.10
68433;DHT22;55412;51.350;17.056;2023-06-14T09:54:02;19.30;55.50
68433;DHT22;55412;51.350;17.056;2023-06-14T09:56:37;19.20;55.20
68433;DHT22;55412;51.350;17.056;2023-06-14T09:59:09;19.20;55.80
68433;DHT22;55412;51.350;17.056;2023-06-14T10:01:43;19.30;56.50
68433;DHT22;55412;51.350;17.056;2023-06-14T10:04:09;19.40;55.40
68433;DHT22;55412;51.350;17.056;2023-06-14T10:06:37;19.40;55.30
68433;DHT22;55412;51.350;17.056;2023-06-14T10:09:10;19.40;55.70
68433;DHT22;55412;51.350;17.056;2023-06-14T10:11:37;19.50;56.40
68433;DHT22;55412;51.350;17.056;2023-06-14T10:14:12;19.70;55.50
68433;DHT22;55412;51.350;17.056;2023-06-14T10:19:48;20.20;55.20
68433;DHT22;55412;51.350;17.056;2023-06-14T10:22:42;20.50;54.50
68433;DHT22;55412;51.350;17.056;2023-06-14T10:25:26;20.70;51.80
68433;DHT22;55412;51.350;17.056;2023-06-14T10:28:23;20.80;52.00
68433;DHT22;55412;51.350;17.056;2023-06-14T10:31:10;20.80;50.20
68433;DHT22;55412;51.350;17.056;2023-06-14T10:33:48;20.90;52.30
68433;DHT22;55412;51.350;17.056;2023-06-14T10:39:04;20.90;49.50
68433;DHT22;55412;51.350;17.056;2023-06-14T10:41:37;20.80;50.50
68433;DHT22;55412;51.350;17.056;2023-06-14T10:46:39;20.80;51.80
68433;DHT22;55412;51.350;17.056;2023-06-14T10:49:06;20.90;50.80
68433;DHT22;55412;51.350;17.056;2023-06-14T10:51:41;20.90;51.20
68433;DHT22;55412;51.350;17.056;2023-06-14T10:54:15;21.00;51.00
68433;DHT22;55412;51.350;17.056;2023-06-14T10:56:50;20.90;50.30
68433;DHT22;55412;51.350;17.056;2023-06-14T10:59:19;20.80;50.80
68433;DHT22;55412;51.350;17.056;2023-06-14T11:04:48;20.60;51.30
68433;DHT22;55412;51.350;17.056;2023-06-14T11:07:27;20.50;51.90
68433;DHT22;55412;51.350;17.056;2023-06-14T11:10:39;20.30;52.30
68433;DHT22;55412;51.350;17.056;2023-06-14T11:13:09;20.20;53.50
68433;DHT22;55412;51.350;17.056;2023-06-14T11:15:36;20.20;52.20
68433;DHT22;55412;51.350;17.056;2023-06-14T11:18:05;20.10;52.10
68433;DHT22;55412;51.350;17.056;2023-06-14T11:20:34;20.00;52.40
68433;DHT22;55412;51.350;17.056;2023-06-14T11:23:04;19.80;53.00
68433;DHT22;55412;51.350;17.056;2023-06-14T11:25:30;19.80;53.70
68433;DHT22;55412;51.350;17.056;2023-06-14T11:27:57;19.80;54.20
68433;DHT22;55412;51.350;17.056;2023-06-14T11:30:25;19.90;54.50
68433;DHT22;55412;51.350;17.056;2023-06-14T11:32:52;20.00;53.50
68433;DHT22;55412;51.350;17.056;2023-06-14T11:35:21;20.10;53.00
68433;DHT22;55412;51.350;17.056;2023-06-14T11:37:52;20.10;54.10
68433;DHT22;55412;51.350;17.056;2023-06-14T11:40:19;20.30;53.80
68433;DHT22;55412;51.350;17.056;2023-06-14T11:42:45;20.50;54.20
68433;DHT22;55412;51.350;17.056;2023-06-14T11:45:12;20.50;51.90
68433;DHT22;55412;51.350;17.056;2023-06-14T11:47:39;20.30;52.40
68433;DHT22;55412;51.350;17.056;2023-06-14T11:50:07;20.20;54.00
68433;DHT22;55412;51.350;17.056;2023-06-14T11:52:36;20.20;54.80
68433;DHT22;55412;51.350;17.056;2023-06-14T11:55:03;20.10;53.20
68433;DHT22;55412;51.350;17.056;2023-06-14T11:57:34;19.90;53.20
68433;DHT22;55412;51.350;17.056;2023-06-14T12:00:03;19.70;53.40
68433;DHT22;55412;51.350;17.056;2023-06-14T12:02:33;19.60;54.10
68433;DHT22;55412;51.350;17.056;2023-06-14T12:05:04;19.50;54.50
68433;DHT22;55412;51.350;17.056;2023-06-14T12:07:37;19.40;55.10
68433;DHT22;55412;51.350;17.056;2023-06-14T12:10:08;19.30;55.20
68433;DHT22;55412;51.350;17.056;2023-06-14T12:12:39;19.20;54.90
68433;DHT22;55412;51.350;17.056;2023-06-14T12:15:07;19.10;55.50
68433;DHT22;55412;51.350;17.056;2023-06-14T12:17:38;19.10;55.40
68433;DHT22;55412;51.350;17.056;2023-06-14T12:20:11;19.20;55.40
68433;DHT22;55412;51.350;17.056;2023-06-14T12:22:55;19.30;55.00
68433;DHT22;55412;51.350;17.056;2023-06-14T12:25:30;19.30;53.60
68433;DHT22;55412;51.350;17.056;2023-06-14T12:27:59;19.40;55.60
68433;DHT22;55412;51.350;17.056;2023-06-14T12:30:33;19.40;54.30
68433;DHT22;55412;51.350;17.056;2023-06-14T12:32:59;19.50;55.40
68433;DHT22;55412;51.350;17.056;2023-06-14T12:35:26;19.70;54.70
68433;DHT22;55412;51.350;17.056;2023-06-14T12:37:52;19.80;53.50
68433;DHT22;55412;51.350;17.056;2023-06-14T12:40:18;19.80;53.70
68433;DHT22;55412;51.350;17.056;2023-06-14T12:42:45;19.90;53.80
68433;DHT22;55412;51.350;17.056;2023-06-14T12:45:14;19.90;54.00
68433;DHT22;55412;51.350;17.056;2023-06-14T12:47:41;20.00;54.00
68433;DHT22;55412;51.350;17.056;2023-06-14T12:50:08;20.00;53.50
68433;DHT22;55412;51.350;17.056;2023-06-14T12:52:34;19.90;54.20
68433;DHT22;55412;51.350;17.056;2023-06-14T12:55:04;19.90;54.90
68433;DHT22;55412;51.350;17.056;2023-06-14T12:57:30;19.90;53.70
68433;DHT22;55412;51.350;17.056;2023-06-14T12:59:57;19.80;53.10
68433;DHT22;55412;51.350;17.056;2023-06-14T13:02:23;19.70;52.20
68433;DHT22;55412;51.350;17.056;2023-06-14T13:04:50;19.70;53.20
68433;DHT22;55412;51.350;17.056;2023-06-14T13:07:16;19.80;53.40
68433;DHT22;55412;51.350;17.056;2023-06-14T13:09:43;19.80;52.90
68433;DHT22;55412;51.350;17.056;2023-06-14T13:12:10;19.80;51.60
68433;DHT22;55412;51.350;17.056;2023-06-14T13:14:38;19.70;52.50
68433;DHT22;55412;51.350;17.056;2023-06-14T13:17:07;19.60;52.00
68433;DHT22;55412;51.350;17.056;2023-06-14T13:19:33;19.50;53.50
68433;DHT22;55412;51.350;17.056;2023-06-14T13:22:00;19.50;54.00
68433;DHT22;55412;51.350;17.056;2023-06-14T13:24:26;19.60;53.20
68433;DHT22;55412;51.350;17.056;2023-06-14T13:26:54;19.60;52.80
68433;DHT22;55412;51.350;17.056;2023-06-14T13:29:20;19.70;52.20
68433;DHT22;55412;51.350;17.056;2023-06-14T13:31:46;19.80;52.90
68433;DHT22;55412;51.350;17.056;2023-06-14T13:34:12;19.80;52.60
68433;DHT22;55412;51.350;17.056;2023-06-14T13:36:39;19.90;52.10
68433;DHT22;55412;51.350;17.056;2023-06-14T13:39:05;19.90;53.90
68433;DHT22;55412;51.350;17.056;2023-06-14T13:41:32;19.80;53.90
68433;DHT22;55412;51.350;17.056;2023-06-14T13:44:00;19.60;54.10
68433;DHT22;55412;51.350;17.056;2023-06-14T13:46:29;19.50;54.50
68433;DHT22;55412;51.350;17.056;2023-06-14T13:48:55;19.40;54.90
68433;DHT22;55412;51.350;17.056;2023-06-14T13:51:22;19.40;55.10
68433;DHT22;55412;51.350;17.056;2023-06-14T13:53:49;19.40;54.60
68433;DHT22;55412;51.350;17.056;2023-06-14T13:56:17;19.40;53.10
68433;DHT22;55412;51.350;17.056;2023-06-14T13:58:43;19.50;52.90
68433;DHT22;55412;51.350;17.056;2023-06-14T14:01:09;19.40;52.20
68433;DHT22;55412;51.350;17.056;2023-06-14T14:03:36;19.40;53.00
68433;DHT22;55412;51.350;17.056;2023-06-14T14:06:03;19.40;53.50
68433;DHT22;55412;51.350;17.056;2023-06-14T14:08:30;19.50;51.60
68433;DHT22;55412;51.350;17.056;2023-06-14T14:10:56;19.50;52.50
68433;DHT22;55412;51.350;17.056;2023-06-14T14:13:22;19.60;52.80
68433;DHT22;55412;51.350;17.056;2023-06-14T14:15:48;19.70;52.20
68433;DHT22;55412;51.350;17.056;2023-06-14T14:18:18;19.70;52.10
68433;DHT22;55412;51.350;17.056;2023-06-14T14:20:46;19.90;52.10
68433;DHT22;55412;51.350;17.056;2023-06-14T14:23:13;20.00;51.10
68433;DHT22;55412;51.350;17.056;2023-06-14T14:25:39;19.90;50.30
68433;DHT22;55412;51.350;17.056;2023-06-14T14:28:05;19.80;49.80
68433;DHT22;55412;51.350;17.056;2023-06-14T14:30:31;19.80;52.60
68433;DHT22;55412;51.350;17.056;2023-06-14T14:32:58;19.80;55.10
68433;DHT22;55412;51.350;17.056;2023-06-14T14:35:24;19.70;55.80
68433;DHT22;55412;51.350;17.056;2023-06-14T14:37:52;19.70;56.20
68433;DHT22;55412;51.350;17.056;2023-06-14T14:40:18;19.70;56.20
68433;DHT22;55412;51.350;17.056;2023-06-14T14:42:44;19.70;56.40
68433;DHT22;55412;51.350;17.056;2023-06-14T14:45:10;19.60;56.10
68433;DHT22;55412;51.350;17.056;2023-06-14T14:47:36;19.50;57.20
68433;DHT22;55412;51.350;17.056;2023-06-14T14:50:02;19.40;56.80
68433;DHT22;55412;51.350;17.056;2023-06-14T14:52:28;19.30;57.90
68433;DHT22;55412;51.350;17.056;2023-06-14T14:54:54;19.10;57.70
68433;DHT22;55412;51.350;17.056;2023-06-14T14:57:21;19.00;58.30
68433;DHT22;55412;51.350;17.056;2023-06-14T14:59:47;18.80;57.70
68433;DHT22;55412;51.350;17.056;2023-06-14T15:02:13;18.80;58.60
68433;DHT22;55412;51.350;17.056;2023-06-14T15:04:40;18.90;58.80
68433;DHT22;55412;51.350;17.056;2023-06-14T15:07:06;18.90;59.70
68433;DHT22;55412;51.350;17.056;2023-06-14T15:09:32;18.90;59.40
68433;DHT22;55412;51.350;17.056;2023-06-14T15:11:58;19.00;59.60
68433;DHT22;55412;51.350;17.056;2023-06-14T15:14:24;19.00;59.20
68433;DHT22;55412;51.350;17.056;2023-06-14T15:16:53;18.90;58.80
68433;DHT22;55412;51.350;17.056;2023-06-14T15:19:19;18.80;59.40
68433;DHT22;55412;51.350;17.056;2023-06-14T15:21:45;18.70;60.30
68433;DHT22;55412;51.350;17.056;2023-06-14T15:24:11;18.70;59.90
68433;DHT22;55412;51.350;17.056;2023-06-14T15:26:37;18.70;60.00
68433;DHT22;55412;51.350;17.056;2023-06-14T15:29:03;18.60;60.40
68433;DHT22;55412;51.350;17.056;2023-06-14T15:31:29;18.60;61.00
68433;DHT22;55412;51.350;17.056;2023-06-14T15:33:55;18.60;60.80